TimeCDT,TemperatureF,Dew PointF,Humidity,Sea Level PressureIn,VisibilityMPH,Wind Direction,Wind SpeedMPH,Gust SpeedMPH,PrecipitationIn,Events,Conditions,WindDirDegrees,DateUTC
12:15 AM,73.8,73.8,100,29.85,10.0,NNE,5.8,-,0.02,Rain-Thunderstorm,Light Thunderstorms and Rain,20,2013-06-27 05:15:00
12:35 AM,73.8,73.8,100,29.82,10.0,SSE,3.5,-,0.02,Rain-Thunderstorm,Light Thunderstorms and Rain,160,2013-06-27 05:35:00
1:15 AM,74.3,74.3,100,29.83,10.0,South,6.9,-,0.02,Rain-Thunderstorm,Rain,190,2013-06-27 06:15:00
1:35 AM,74.3,74.3,100,29.83,10.0,South,4.6,-,0.03,Rain,Light Rain,180,2013-06-27 06:35:00
1:55 AM,74.3,74.3,100,29.83,10.0,South,5.8,-,0.03,,Scattered Clouds,180,2013-06-27 06:55:00
2:15 AM,74.3,74.3,100,29.83,10.0,Calm,Calm,-,N/A,,Scattered Clouds,0,2013-06-27 07:15:00
2:35 AM,74.3,74.3,100,29.82,10.0,Calm,Calm,-,N/A,,Clear,0,2013-06-27 07:35:00
2:55 AM,74.8,74.8,100,29.83,10.0,SSW,3.5,-,N/A,,Clear,200,2013-06-27 07:55:00
3:15 AM,74.7,74.7,100,29.83,10.0,SSW,4.6,-,N/A,,Clear,200,2013-06-27 08:15:00
3:35 AM,74.5,74.5,100,29.83,10.0,Calm,Calm,-,N/A,,Clear,0,2013-06-27 08:35:00
3:55 AM,74.5,74.5,100,29.83,10.0,SW,3.5,-,N/A,,Clear,230,2013-06-27 08:55:00
4:15 AM,74.5,74.5,100,29.83,10.0,WSW,4.6,-,N/A,,Scattered Clouds,240,2013-06-27 09:15:00
4:35 AM,74.7,74.7,100,29.82,10.0,WSW,3.5,-,N/A,,Scattered Clouds,250,2013-06-27 09:35:00
4:55 AM,74.5,74.5,100,29.82,10.0,WSW,3.5,-,N/A,,Clear,240,2013-06-27 09:55:00
5:15 AM,74.3,74.3,100,29.82,10.0,WSW,3.5,-,N/A,,Clear,250,2013-06-27 10:15:00
5:35 AM,74.3,74.3,100,29.83,10.0,Calm,Calm,-,N/A,,Clear,0,2013-06-27 10:35:00
5:55 AM,74.3,74.3,100,29.83,10.0,SW,3.5,-,N/A,,Clear,220,2013-06-27 10:55:00
6:15 AM,74.5,74.5,100,29.83,7.0,Calm,Calm,-,N/A,,Clear,0,2013-06-27 11:15:00
6:35 AM,75.0,75.0,100,29.84,7.0,Calm,Calm,-,N/A,,Clear,0,2013-06-27 11:35:00
6:55 AM,75.6,75.6,100,29.84,7.0,Calm,Calm,-,N/A,,Clear,0,2013-06-27 11:55:00
7:15 AM,76.5,76.5,100,29.85,7.0,Calm,Calm,-,N/A,,Scattered Clouds,0,2013-06-27 12:15:00
7:35 AM,77.5,77.5,100,29.85,10.0,West,4.6,-,N/A,,Mostly Cloudy,260,2013-06-27 12:35:00
7:55 AM,78.8,77.0,94,29.86,10.0,West,3.5,-,N/A,,Scattered Clouds,270,2013-06-27 12:55:00
8:15 AM,79.9,75.9,88,29.86,10.0,West,4.6,-,N/A,,Clear,280,2013-06-27 13:15:00
8:35 AM,81.3,75.6,83,29.86,10.0,West,5.8,-,N/A,,Clear,280,2013-06-27 13:35:00
8:55 AM,82.0,76.1,82,29.86,10.0,WNW,3.5,-,N/A,,Clear,290,2013-06-27 13:55:00
9:15 AM,83.1,76.1,79,29.86,10.0,West,5.8,-,N/A,,Clear,260,2013-06-27 14:15:00
9:35 AM,83.3,75.6,77,29.86,10.0,WSW,4.6,-,N/A,,Clear,250,2013-06-27 14:35:00
9:55 AM,84.4,75.0,73,29.86,10.0,WSW,4.6,-,N/A,,Clear,250,2013-06-27 14:55:00
10:15 AM,85.6,74.1,68,29.86,10.0,WNW,5.8,-,N/A,,Clear,290,2013-06-27 15:15:00
10:35 AM,86.5,73.2,64,29.86,10.0,NW,8.1,-,N/A,,Clear,310,2013-06-27 15:35:00
10:55 AM,87.1,72.5,62,29.86,10.0,WNW,8.1,-,N/A,,Clear,290,2013-06-27 15:55:00
11:15 AM,88.7,72.3,58,29.86,10.0,NW,8.1,-,N/A,,Clear,320,2013-06-27 16:15:00
11:35 AM,89.4,72.3,57,29.86,10.0,West,8.1,-,N/A,,Clear,280,2013-06-27 16:35:00
11:55 AM,89.8,70.5,53,29.86,10.0,WNW,10.4,-,N/A,,Clear,300,2013-06-27 16:55:00
12:15 PM,90.7,66.7,45,29.86,10.0,NW,9.2,19.6,N/A,,Clear,310,2013-06-27 17:15:00
12:35 PM,91.2,68.0,46,29.86,10.0,WNW,12.7,17.3,N/A,,Clear,290,2013-06-27 17:35:00
12:55 PM,91.6,65.5,42,29.86,10.0,NW,11.5,20.7,N/A,,Clear,310,2013-06-27 17:55:00
1:15 PM,91.6,65.7,42,29.86,10.0,NW,11.5,17.3,N/A,,Clear,310,2013-06-27 18:15:00
1:35 PM,92.3,66.2,42,29.86,10.0,NW,11.5,16.1,N/A,,Clear,310,2013-06-27 18:35:00
1:55 PM,92.3,67.5,44,29.86,10.0,NW,8.1,-,N/A,,Clear,310,2013-06-27 18:55:00
2:15 PM,92.3,67.3,44,29.86,10.0,NW,8.1,-,N/A,,Clear,320,2013-06-27 19:15:00
2:35 PM,93.0,67.3,43,29.86,10.0,NW,8.1,-,N/A,,Clear,310,2013-06-27 19:35:00
2:55 PM,93.7,66.4,40,29.87,10.0,WNW,9.2,16.1,N/A,,Clear,300,2013-06-27 19:55:00
3:15 PM,93.6,65.5,39,29.86,10.0,NW,10.4,-,N/A,,Clear,310,2013-06-27 20:15:00
3:35 PM,93.6,64.8,38,29.86,10.0,NNW,6.9,-,N/A,,Clear,340,2013-06-27 20:35:00
3:55 PM,93.6,64.9,39,29.86,10.0,NW,9.2,-,N/A,,Clear,320,2013-06-27 20:55:00
4:15 PM,94.1,65.3,39,29.87,10.0,NW,6.9,-,N/A,,Clear,310,2013-06-27 21:15:00
4:35 PM,93.6,66.2,40,29.86,10.0,WNW,6.9,-,N/A,,Clear,300,2013-06-27 21:35:00
4:55 PM,93.2,66.6,41,29.86,10.0,WNW,8.1,-,N/A,,Clear,300,2013-06-27 21:55:00
5:15 PM,93.0,66.4,41,29.85,10.0,NW,6.9,-,N/A,,Clear,310,2013-06-27 22:15:00
5:35 PM,92.7,66.6,42,29.85,10.0,NW,5.8,-,N/A,,Clear,310,2013-06-27 22:35:00
5:55 PM,92.1,67.8,45,29.84,10.0,WNW,5.8,-,N/A,,Clear,290,2013-06-27 22:55:00
6:15 PM,91.4,68.2,46,29.84,10.0,WNW,4.6,-,N/A,,Clear,300,2013-06-27 23:15:00
6:35 PM,91.0,68.7,48,29.83,10.0,WNW,5.8,-,N/A,,Clear,300,2013-06-27 23:35:00
6:55 PM,90.1,68.7,49,29.82,10.0,Calm,Calm,-,N/A,,Clear,0,2013-06-27 23:55:00
7:15 PM,90.0,70.3,52,29.82,10.0,Calm,Calm,-,N/A,,Clear,0,2013-06-28 00:15:00
7:35 PM,87.8,71.6,58,29.81,10.0,Calm,Calm,-,N/A,,Clear,0,2013-06-28 00:35:00
7:55 PM,86.2,71.2,61,29.81,10.0,Calm,Calm,-,N/A,,Clear,0,2013-06-28 00:55:00
8:15 PM,84.2,70.5,63,29.81,10.0,Calm,Calm,-,N/A,,Clear,0,2013-06-28 01:15:00
8:35 PM,81.5,73.6,77,29.81,10.0,Calm,Calm,-,N/A,,Clear,0,2013-06-28 01:35:00
8:55 PM,81.0,71.2,72,29.80,10.0,South,3.5,-,N/A,,Clear,190,2013-06-28 01:55:00
9:15 PM,81.3,71.4,72,29.81,10.0,Calm,Calm,-,N/A,,Clear,0,2013-06-28 02:15:00
9:35 PM,80.6,71.6,74,29.81,10.0,Calm,Calm,-,N/A,,Clear,0,2013-06-28 02:35:00
9:55 PM,78.3,71.8,80,29.80,10.0,Calm,Calm,-,N/A,,Clear,0,2013-06-28 02:55:00
10:15 PM,79.0,71.6,78,29.80,10.0,Calm,Calm,-,N/A,,Clear,0,2013-06-28 03:15:00
10:35 PM,78.1,72.5,83,29.81,10.0,Calm,Calm,-,N/A,,Clear,0,2013-06-28 03:35:00
10:55 PM,77.2,72.5,85,29.81,10.0,Calm,Calm,-,N/A,,Clear,0,2013-06-28 03:55:00
11:15 PM,77.5,71.2,81,29.82,10.0,Calm,Calm,-,N/A,,Clear,0,2013-06-28 04:15:00
11:35 PM,77.9,70.5,78,29.82,10.0,NW,3.5,-,N/A,,Clear,310,2013-06-28 04:35:00
11:55 PM,77.9,70.0,76,29.83,10.0,Calm,Calm,-,N/A,,Clear,0,2013-06-28 04:55:00